Time;durP1;ratioP1;P1;durP2;ratioP2;P2;SDS_P1;SDS_P2;PMS_P1;PMS_P2;Temp;Humidity;BMP_temperature;BMP_pressure;BME280_temperature;BME280_humidity;BME280_pressure;Samples;Min_cycle;Max_cycle;Signal;HPM_P1;HPM_P2
2023/08/29 00:00:52;;;;;;;7.07;2.27;;;14.10;99.90;;;;;;5046996;28;20449;-66
2023/08/29 00:03:21;;;;;;;8.50;2.30;;;14.10;99.90;;;;;;5045568;28;20517;-66
2023/08/29 00:05:49;;;;;;;7.63;3.03;;;14.30;99.90;;;;;;5046661;28;20510;-66
2023/08/29 00:08:17;;;;;;;7.30;2.50;;;14.30;99.90;;;;;;5044981;28;20982;-66
2023/08/29 00:10:45;;;;;;;7.63;2.53;;;14.40;99.90;;;;;;5047551;28;20448;-64
2023/08/29 00:13:13;;;;;;;8.40;2.73;;;14.50;99.90;;;;;;5049601;28;21058;-65
2023/08/29 00:15:41;;;;;;;7.10;2.20;;;14.50;99.90;;;;;;5050569;28;20432;-66
2023/08/29 00:18:09;;;;;;;8.77;2.70;;;14.30;99.90;;;;;;5049561;28;20498;-66
2023/08/29 00:20:38;;;;;;;7.70;2.50;;;14.30;99.90;;;;;;5050183;28;20451;-65
2023/08/29 00:23:09;;;;;;;7.70;2.27;;;14.30;99.90;;;;;;5049761;28;20440;-65
2023/08/29 00:25:37;;;;;;;8.27;2.40;;;14.30;99.90;;;;;;5050108;28;20472;-64
2023/08/29 00:28:06;;;;;;;7.03;2.60;;;14.40;99.90;;;;;;5049870;28;20474;-65
2023/08/29 00:30:36;;;;;;;9.50;2.40;;;14.50;99.90;;;;;;5050173;28;20455;-65
2023/08/29 00:33:04;;;;;;;7.13;2.50;;;14.50;99.90;;;;;;5049464;28;20940;-65
2023/08/29 00:35:33;;;;;;;7.67;2.80;;;14.40;99.90;;;;;;5050758;28;20521;-65
2023/08/29 00:38:02;;;;;;;9.10;2.73;;;14.40;99.90;;;;;;5050109;28;20510;-65
2023/08/29 00:40:31;;;;;;;7.57;2.50;;;14.40;99.90;;;;;;5050145;28;20440;-65
2023/08/29 00:42:59;;;;;;;8.17;2.93;;;14.50;99.90;;;;;;5043556;28;20462;-65
2023/08/29 00:45:30;;;;;;;7.90;2.80;;;14.40;99.90;;;;;;5050230;28;20479;-65
2023/08/29 00:47:58;;;;;;;9.70;3.20;;;14.40;99.90;;;;;;5047515;28;21128;-65
2023/08/29 00:50:27;;;;;;;16.00;3.90;;;14.30;99.90;;;;;;5045752;28;20501;-64
2023/08/29 00:52:58;;;;;;;8.43;3.00;;;14.30;99.90;;;;;;5050122;28;20843;-64
2023/08/29 00:55:28;;;;;;;8.73;3.10;;;14.30;99.90;;;;;;5049962;28;20502;-64
2023/08/29 00:57:59;;;;;;;7.80;3.07;;;14.20;99.90;;;;;;5050024;28;21049;-64
2023/08/29 01:00:28;;;;;;;7.03;2.40;;;14.20;99.90;;;;;;5050175;28;20439;-66
2023/08/29 01:02:57;;;;;;;9.77;3.53;;;14.00;99.90;;;;;;5053466;28;20522;-65
2023/08/29 01:05:25;;;;;;;8.00;2.90;;;14.00;99.90;;;;;;5050477;28;20478;-65
2023/08/29 01:07:58;;;;;;;7.93;2.77;;;14.00;99.90;;;;;;5049132;28;20461;-65
2023/08/29 01:10:37;;;;;;;8.10;2.67;;;14.20;99.90;;;;;;5048584;28;20459;-65
2023/08/29 01:13:15;;;;;;;8.67;3.00;;;14.40;99.90;;;;;;5042669;28;20464;-66
2023/08/29 01:15:47;;;;;;;8.40;2.53;;;14.50;99.90;;;;;;5049594;28;20444;-65
2023/08/29 01:18:18;;;;;;;7.80;2.70;;;14.50;99.90;;;;;;5048439;28;21079;-66
2023/08/29 01:20:50;;;;;;;8.20;2.70;;;14.50;99.90;;;;;;5049747;28;20439;-66
2023/08/29 01:23:23;;;;;;;8.07;2.67;;;14.40;99.90;;;;;;5047188;28;20477;-65
2023/08/29 01:26:05;;;;;;;7.73;3.23;;;14.20;99.90;;;;;;5049389;28;20863;-66
2023/08/29 01:28:33;;;;;;;7.93;2.80;;;14.00;99.90;;;;;;5049170;28;20528;-65
2023/08/29 01:31:02;;;;;;;7.10;2.47;;;13.90;99.90;;;;;;5048758;28;20447;-64
2023/08/29 01:33:30;;;;;;;7.77;3.00;;;13.90;99.90;;;;;;5049018;28;20478;-64
2023/08/29 01:35:58;;;;;;;8.83;4.00;;;13.90;99.90;;;;;;5049036;28;20501;-64
2023/08/29 01:38:26;;;;;;;8.43;3.17;;;13.90;99.90;;;;;;5049442;28;20451;-65
2023/08/29 01:40:54;;;;;;;8.00;3.10;;;13.80;99.90;;;;;;5049288;28;20938;-65
2023/08/29 01:43:23;;;;;;;8.77;2.83;;;13.90;99.90;;;;;;5047850;28;20449;-65
2023/08/29 01:45:51;;;;;;;12.60;4.30;;;14.00;99.90;;;;;;5048994;28;20849;-66
2023/08/29 01:48:19;;;;;;;8.40;3.07;;;14.00;99.90;;;;;;5049648;28;20472;-66
2023/08/29 01:50:48;;;;;;;8.00;3.40;;;14.10;99.90;;;;;;5050627;28;20440;-66
2023/08/29 01:53:16;;;;;;;7.47;2.90;;;14.00;99.90;;;;;;5049561;28;20446;-65
2023/08/29 01:55:45;;;;;;;7.70;2.80;;;14.00;99.90;;;;;;5050837;28;20445;-66
2023/08/29 01:58:14;;;;;;;7.47;3.20;;;14.10;99.90;;;;;;5044817;28;20472;-66
2023/08/29 02:00:43;;;;;;;8.10;3.20;;;14.20;99.90;;;;;;5050775;28;20438;-64
2023/08/29 02:03:11;;;;;;;8.20;3.10;;;14.20;99.90;;;;;;5049123;28;20459;-65
2023/08/29 02:05:41;;;;;;;7.70;3.33;;;14.20;99.90;;;;;;5050970;28;20447;-66
2023/08/29 02:08:09;;;;;;;8.80;3.30;;;14.30;99.90;;;;;;5050621;28;20491;-63
2023/08/29 02:10:36;;;;;;;7.90;2.83;;;14.40;99.90;;;;;;5050678;28;20453;-64
2023/08/29 02:13:04;;;;;;;8.37;3.30;;;14.40;99.90;;;;;;5049759;28;20485;-65
2023/08/29 02:15:32;;;;;;;8.67;2.90;;;14.40;99.90;;;;;;5050882;28;20502;-65
2023/08/29 02:18:02;;;;;;;8.43;3.40;;;14.50;99.90;;;;;;5050746;28;20453;-65
2023/08/29 02:20:31;;;;;;;9.43;3.60;;;14.40;99.90;;;;;;5050353;28;20440;-65
2023/08/29 02:22:58;;;;;;;7.43;3.03;;;14.30;99.90;;;;;;5050295;28;20451;-65
2023/08/29 02:25:26;;;;;;;11.23;3.93;;;14.20;99.90;;;;;;5050268;28;20444;-65
2023/08/29 02:27:54;;;;;;;8.77;3.63;;;14.40;99.90;;;;;;5050464;28;20492;-65
2023/08/29 02:30:22;;;;;;;9.70;3.40;;;14.30;99.90;;;;;;5044206;28;20528;-66
2023/08/29 02:32:52;;;;;;;7.77;3.07;;;14.30;99.90;;;;;;5049812;28;20535;-66
2023/08/29 02:35:22;;;;;;;8.20;3.30;;;14.30;99.90;;;;;;5050344;28;20452;-65
2023/08/29 02:37:50;;;;;;;8.60;3.40;;;14.30;99.90;;;;;;5049975;28;20541;-66
2023/08/29 02:40:19;;;;;;;9.33;3.50;;;14.40;99.90;;;;;;5050376;28;20503;-66
2023/08/29 02:42:47;;;;;;;8.10;3.13;;;14.30;99.90;;;;;;5049811;28;20532;-65
2023/08/29 02:45:15;;;;;;;7.90;3.17;;;14.40;99.90;;;;;;5050425;28;20544;-66
2023/08/29 02:47:43;;;;;;;8.20;3.30;;;14.30;99.90;;;;;;5050007;28;20648;-66
2023/08/29 02:50:11;;;;;;;9.30;3.33;;;14.20;99.90;;;;;;5050159;28;20473;-66
2023/08/29 02:52:40;;;;;;;7.63;2.93;;;14.30;99.90;;;;;;5049834;28;20920;-67
2023/08/29 02:55:09;;;;;;;8.00;2.87;;;14.30;99.90;;;;;;5049026;28;20476;-66
2023/08/29 02:57:37;;;;;;;8.93;3.27;;;14.50;99.90;;;;;;5048991;28;20529;-65
2023/08/29 03:00:06;;;;;;;7.57;2.83;;;14.60;99.90;;;;;;5049980;28;20492;-66
2023/08/29 03:02:34;;;;;;;8.20;3.70;;;14.70;99.90;;;;;;5050099;28;20440;-65
2023/08/29 03:05:02;;;;;;;7.97;2.97;;;14.70;99.90;;;;;;5049994;28;20969;-65
2023/08/29 03:07:30;;;;;;;8.33;3.33;;;14.70;99.90;;;;;;5047198;28;20575;-65
2023/08/29 03:09:59;;;;;;;7.93;2.93;;;14.70;99.90;;;;;;5048240;28;20471;-66
2023/08/29 03:12:27;;;;;;;10.63;3.90;;;14.70;99.90;;;;;;5049503;28;21234;-66
2023/08/29 03:14:55;;;;;;;9.53;3.20;;;14.60;99.90;;;;;;5049493;28;20906;-65
2023/08/29 03:17:23;;;;;;;8.03;2.93;;;14.70;99.90;;;;;;5044374;28;20473;-65
2023/08/29 03:19:51;;;;;;;9.23;3.17;;;14.70;99.90;;;;;;5049544;28;20447;-66
2023/08/29 03:22:19;;;;;;;7.33;2.70;;;14.70;99.90;;;;;;5049371;28;21208;-67
2023/08/29 03:24:47;;;;;;;8.23;3.27;;;14.70;99.90;;;;;;5049623;28;20522;-66
2023/08/29 03:27:17;;;;;;;13.13;5.20;;;14.80;99.90;;;;;;5049056;28;20502;-67
2023/08/29 03:29:44;;;;;;;8.00;3.00;;;14.60;99.90;;;;;;5049738;28;20444;-66
2023/08/29 03:32:12;;;;;;;10.70;3.50;;;14.60;99.90;;;;;;5049433;28;20444;-65
2023/08/29 03:34:40;;;;;;;7.43;2.70;;;14.50;99.90;;;;;;5045785;28;20429;-65
2023/08/29 03:37:08;;;;;;;12.50;4.37;;;14.50;99.90;;;;;;5049028;28;20452;-66
2023/08/29 03:39:36;;;;;;;8.40;3.27;;;14.60;99.90;;;;;;5048674;28;20443;-65
2023/08/29 03:42:05;;;;;;;12.53;3.23;;;14.60;99.90;;;;;;5049130;28;20861;-66
2023/08/29 03:44:34;;;;;;;9.13;3.53;;;14.60;99.90;;;;;;5048589;28;20513;-66
2023/08/29 03:47:02;;;;;;;8.67;3.90;;;14.50;99.90;;;;;;5049167;28;20938;-65
2023/08/29 03:49:30;;;;;;;9.03;3.93;;;14.50;99.90;;;;;;5049038;28;20448;-65
2023/08/29 03:51:58;;;;;;;8.43;4.07;;;14.50;99.90;;;;;;5049387;28;20534;-66
2023/08/29 03:54:26;;;;;;;8.67;3.90;;;14.50;99.90;;;;;;5048806;28;20457;-65
2023/08/29 03:56:54;;;;;;;9.43;4.47;;;14.40;99.90;;;;;;5049526;28;20472;-66
2023/08/29 03:59:22;;;;;;;9.27;4.00;;;14.30;99.90;;;;;;5049087;28;20509;-65
2023/08/29 04:01:51;;;;;;;8.70;4.60;;;14.40;99.90;;;;;;5049413;28;20448;-66
2023/08/29 04:04:19;;;;;;;10.17;5.20;;;14.30;99.90;;;;;;5048597;28;20453;-67
2023/08/29 04:06:47;;;;;;;11.30;5.20;;;14.40;99.90;;;;;;5049281;28;20546;-66
2023/08/29 04:09:15;;;;;;;9.07;4.53;;;14.30;99.90;;;;;;5048727;28;20471;-66
2023/08/29 04:11:43;;;;;;;11.70;5.53;;;14.20;99.90;;;;;;5049328;28;20450;-67
2023/08/29 04:14:11;;;;;;;12.20;5.80;;;14.10;99.90;;;;;;5048794;28;20608;-67
2023/08/29 04:16:39;;;;;;;13.17;6.50;;;14.10;99.90;;;;;;5048954;28;20466;-66
2023/08/29 04:19:08;;;;;;;10.70;5.90;;;14.10;99.90;;;;;;5049262;28;20436;-67
2023/08/29 04:21:36;;;;;;;12.67;6.47;;;14.20;99.90;;;;;;5048470;28;20450;-66
2023/08/29 04:24:04;;;;;;;11.27;5.80;;;14.30;99.90;;;;;;5048945;28;20488;-66
2023/08/29 04:26:32;;;;;;;13.00;8.17;;;14.20;99.90;;;;;;5048523;28;20558;-66
2023/08/29 04:29:00;;;;;;;11.67;6.30;;;14.20;99.90;;;;;;5048989;28;20570;-66
2023/08/29 04:31:28;;;;;;;12.40;7.53;;;14.30;99.90;;;;;;5048566;28;20449;-65
2023/08/29 04:33:56;;;;;;;15.10;9.00;;;14.30;99.90;;;;;;5048877;28;20803;-67
2023/08/29 04:36:26;;;;;;;16.30;8.60;;;14.30;99.90;;;;;;5048474;28;20507;-66
2023/08/29 04:38:54;;;;;;;13.73;8.63;;;14.30;99.90;;;;;;5048960;28;20519;-67
2023/08/29 04:41:22;;;;;;;14.23;7.87;;;14.30;99.90;;;;;;5049188;28;20547;-66
2023/08/29 04:43:50;;;;;;;16.00;8.63;;;14.30;99.90;;;;;;5047829;28;20455;-66
2023/08/29 04:46:18;;;;;;;14.50;8.97;;;14.40;99.90;;;;;;5047875;28;20518;-66
2023/08/29 04:48:46;;;;;;;12.93;8.33;;;14.40;99.90;;;;;;5048521;28;21012;-67
2023/08/29 04:51:14;;;;;;;17.77;10.07;;;14.40;99.90;;;;;;5049183;28;20856;-65
2023/08/29 04:53:43;;;;;;;17.37;11.37;;;14.30;99.90;;;;;;5048053;28;20447;-66
2023/08/29 04:56:11;;;;;;;14.93;9.57;;;14.30;99.90;;;;;;5049359;28;20501;-67
2023/08/29 04:58:39;;;;;;;15.47;9.90;;;14.20;99.90;;;;;;5051726;28;20470;-65
2023/08/29 05:01:07;;;;;;;15.87;11.87;;;14.10;99.90;;;;;;5052064;28;20923;-67
2023/08/29 05:03:35;;;;;;;17.70;11.70;;;14.20;99.90;;;;;;5052217;28;20542;-67
2023/08/29 05:06:03;;;;;;;16.20;11.00;;;14.30;99.90;;;;;;5051060;28;20543;-66
2023/08/29 05:08:34;;;;;;;16.00;10.80;;;14.40;99.90;;;;;;5051510;28;20853;-67
2023/08/29 05:11:04;;;;;;;20.00;10.40;;;14.30;99.90;;;;;;5051584;28;20478;-66
2023/08/29 05:13:32;;;;;;;15.70;10.97;;;14.30;99.90;;;;;;5051830;28;20551;-65
2023/08/29 05:16:00;;;;;;;15.20;10.93;;;14.40;99.90;;;;;;5050705;28;20547;-66
2023/08/29 05:18:28;;;;;;;16.73;10.83;;;14.40;99.90;;;;;;5051849;28;20993;-65
2023/08/29 05:20:56;;;;;;;16.43;10.23;;;14.30;99.90;;;;;;5052186;28;20504;-65
2023/08/29 05:23:24;;;;;;;16.60;11.13;;;14.30;99.90;;;;;;5051767;28;20437;-65
2023/08/29 05:25:52;;;;;;;17.53;9.97;;;14.30;99.90;;;;;;5051935;28;20509;-65
2023/08/29 05:28:21;;;;;;;15.97;9.90;;;14.30;99.90;;;;;;5051610;28;20488;-66
2023/08/29 05:30:49;;;;;;;15.57;10.33;;;14.40;99.90;;;;;;5051599;28;20447;-66
2023/08/29 05:33:17;;;;;;;18.10;10.23;;;14.40;99.90;;;;;;5051695;28;20818;-65
2023/08/29 05:35:45;;;;;;;14.93;10.00;;;14.50;99.90;;;;;;5051389;28;21039;-66
2023/08/29 05:38:13;;;;;;;15.57;9.40;;;14.60;99.90;;;;;;5051837;28;20517;-67
2023/08/29 05:40:41;;;;;;;16.50;10.67;;;14.60;99.90;;;;;;5051280;28;20451;-66
2023/08/29 05:43:09;;;;;;;16.70;10.43;;;14.70;99.90;;;;;;5051367;28;20498;-67
2023/08/29 05:45:42;;;;;;;20.73;10.77;;;14.50;99.90;;;;;;5051591;28;20467;-66
2023/08/29 05:48:09;;;;;;;14.03;8.80;;;14.50;99.90;;;;;;5051774;28;20495;-66
2023/08/29 05:50:39;;;;;;;15.00;9.73;;;14.60;99.90;;;;;;5052099;28;20474;-66
2023/08/29 05:53:08;;;;;;;16.60;9.83;;;14.50;99.90;;;;;;5050535;28;20485;-67
2023/08/29 05:55:36;;;;;;;17.40;10.27;;;14.60;99.90;;;;;;5051549;28;20512;-65
2023/08/29 05:58:04;;;;;;;13.17;8.37;;;14.60;99.90;;;;;;5051022;28;20460;-67
2023/08/29 06:00:32;;;;;;;13.73;8.90;;;14.70;99.90;;;;;;5051514;28;20444;-67
2023/08/29 06:03:03;;;;;;;14.87;10.20;;;14.50;99.90;;;;;;5050311;28;20483;-67
2023/08/29 06:05:32;;;;;;;13.90;9.00;;;14.40;99.90;;;;;;5051074;28;20447;-68
2023/08/29 06:08:01;;;;;;;16.83;10.03;;;14.30;99.90;;;;;;5049984;28;20476;-67
2023/08/29 06:10:46;;;;;;;14.97;10.07;;;14.30;99.90;;;;;;5050210;28;20432;-67
2023/08/29 06:13:14;;;;;;;15.87;10.87;;;14.50;99.90;;;;;;5050459;28;20443;-67
2023/08/29 06:15:42;;;;;;;15.33;10.20;;;14.40;99.90;;;;;;5050430;28;20440;-67
2023/08/29 06:18:11;;;;;;;19.73;11.57;;;14.20;99.90;;;;;;5050618;28;20530;-67
2023/08/29 06:20:39;;;;;;;16.37;9.80;;;14.20;99.90;;;;;;5050978;28;20555;-66
2023/08/29 06:23:07;;;;;;;15.83;10.07;;;14.10;99.90;;;;;;5050800;28;20448;-65
2023/08/29 06:25:35;;;;;;;17.80;11.33;;;14.00;99.90;;;;;;5050345;28;20818;-66
2023/08/29 06:28:03;;;;;;;17.50;10.87;;;14.20;99.90;;;;;;5050539;28;20466;-66
2023/08/29 06:30:32;;;;;;;16.97;11.97;;;14.20;99.90;;;;;;5050296;28;20451;-65
2023/08/29 06:33:00;;;;;;;22.60;11.60;;;14.20;99.90;;;;;;5050383;28;20549;-66
2023/08/29 06:35:29;;;;;;;18.00;12.33;;;14.20;99.90;;;;;;5050784;28;20444;-66
2023/08/29 06:37:57;;;;;;;17.73;11.93;;;14.20;99.90;;;;;;5047361;28;20472;-66
2023/08/29 06:40:25;;;;;;;18.30;12.60;;;14.20;99.90;;;;;;5049677;28;20442;-66
2023/08/29 06:42:53;;;;;;;17.63;12.40;;;14.20;99.90;;;;;;5049879;28;20818;-67
2023/08/29 06:45:21;;;;;;;17.90;12.23;;;14.10;99.90;;;;;;5029618;28;20465;-67
2023/08/29 06:47:51;;;;;;;18.40;12.00;;;14.00;99.90;;;;;;5030394;28;20517;-66
2023/08/29 06:50:19;;;;;;;18.30;13.63;;;14.00;99.90;;;;;;5030370;28;20538;-67
2023/08/29 06:52:48;;;;;;;20.17;13.63;;;14.00;99.90;;;;;;5029792;28;20866;-67
2023/08/29 06:55:17;;;;;;;18.90;12.97;;;13.90;99.90;;;;;;5030541;28;20954;-66
2023/08/29 06:57:45;;;;;;;18.03;13.50;;;13.90;99.90;;;;;;5030059;28;21000;-66
2023/08/29 07:00:13;;;;;;;17.37;13.10;;;14.10;99.90;;;;;;5030541;28;20437;-66
2023/08/29 07:02:41;;;;;;;16.70;12.00;;;14.30;99.90;;;;;;5029857;28;20472;-67
2023/08/29 07:05:09;;;;;;;21.90;10.77;;;14.50;99.90;;;;;;5030452;28;20475;-67
2023/08/29 07:07:38;;;;;;;15.73;11.53;;;14.60;99.90;;;;;;5030205;28;20468;-67
2023/08/29 07:10:09;;;;;;;15.73;10.90;;;14.70;99.90;;;;;;5030143;28;20484;-65
2023/08/29 07:12:36;;;;;;;14.80;10.50;;;14.70;99.90;;;;;;5039013;28;20629;-66
2023/08/29 07:15:05;;;;;;;18.13;10.43;;;14.80;99.90;;;;;;5049769;28;20545;-67
2023/08/29 07:17:33;;;;;;;15.10;10.33;;;14.90;99.90;;;;;;5049911;28;20517;-65
2023/08/29 07:20:08;;;;;;;18.70;10.60;;;14.70;99.90;;;;;;5048890;28;20466;-66
2023/08/29 07:22:37;;;;;;;15.80;10.40;;;14.70;99.90;;;;;;5049425;28;20493;-66
2023/08/29 07:25:08;;;;;;;15.80;9.70;;;14.60;99.90;;;;;;5049589;28;20448;-66
2023/08/29 07:27:36;;;;;;;16.07;10.90;;;14.60;99.90;;;;;;5049751;28;21017;-66
2023/08/29 07:30:04;;;;;;;15.47;10.77;;;14.50;99.90;;;;;;5038930;28;20500;-66
2023/08/29 07:32:32;;;;;;;14.87;10.63;;;14.40;99.90;;;;;;5034620;28;20437;-67
2023/08/29 07:35:02;;;;;;;14.60;11.20;;;14.40;99.90;;;;;;5033392;28;20454;-66
2023/08/29 07:37:30;;;;;;;15.07;10.03;;;14.40;99.90;;;;;;5045533;28;21206;-67
2023/08/29 07:39:58;;;;;;;16.17;11.00;;;14.50;99.90;;;;;;5040321;28;20443;-66
2023/08/29 07:42:27;;;;;;;15.33;10.70;;;14.40;99.90;;;;;;5045243;28;20461;-66
2023/08/29 07:44:55;;;;;;;16.77;11.23;;;14.30;99.90;;;;;;5037895;28;20480;-67
2023/08/29 07:47:23;;;;;;;17.33;10.80;;;14.30;99.90;;;;;;5042763;28;20456;-69
2023/08/29 07:49:51;;;;;;;20.63;11.27;;;14.40;99.90;;;;;;5041548;28;20482;-67
2023/08/29 07:52:19;;;;;;;17.20;13.03;;;14.40;99.90;;;;;;5043579;28;20953;-69
2023/08/29 07:54:47;;;;;;;16.40;10.77;;;14.50;99.90;;;;;;5043596;28;20959;-68
2023/08/29 07:57:15;;;;;;;16.17;11.67;;;14.50;99.90;;;;;;5041710;28;20921;-69
2023/08/29 07:59:44;;;;;;;16.57;11.80;;;14.50;99.90;;;;;;5036123;28;20483;-70
2023/08/29 08:02:12;;;;;;;17.65;14.35;;;14.40;99.90;;;;;;5031626;28;20866;-68
2023/08/29 08:04:40;;;;;;;16.53;12.77;;;14.50;99.90;;;;;;5045229;28;20206;-68
2023/08/29 08:07:08;;;;;;;15.40;12.03;;;14.60;99.90;;;;;;5034246;28;20456;-68
2023/08/29 08:09:36;;;;;;;17.30;13.10;;;14.60;99.90;;;;;;5026325;28;20489;-68
2023/08/29 08:12:08;;;;;;;15.90;12.17;;;14.50;99.90;;;;;;5045024;28;20509;-68
2023/08/29 08:14:36;;;;;;;15.80;11.77;;;14.50;99.90;;;;;;5041440;28;20539;-68
2023/08/29 08:17:06;;;;;;;16.07;12.77;;;14.50;99.90;;;;;;5042266;28;20474;-68
2023/08/29 08:19:34;;;;;;;17.30;12.87;;;14.60;99.90;;;;;;5045487;28;20530;-69
2023/08/29 08:22:02;;;;;;;16.70;11.67;;;14.60;99.90;;;;;;5028559;28;20538;-70
2023/08/29 08:24:30;;;;;;;16.60;12.50;;;14.70;99.90;;;;;;5040142;28;20467;-70
2023/08/29 08:26:58;;;;;;;17.33;10.97;;;14.80;99.90;;;;;;5039681;28;20458;-69
2023/08/29 08:29:26;;;;;;;15.03;10.80;;;14.80;99.90;;;;;;5036307;28;20476;-68
2023/08/29 08:31:53;;;;;;;17.83;11.30;;;14.80;99.90;;;;;;5032779;28;20531;-69
2023/08/29 08:34:23;;;;;;;16.63;10.77;;;14.90;99.90;;;;;;5042784;28;20456;-69
2023/08/29 08:36:51;;;;;;;16.47;12.67;;;14.90;99.90;;;;;;5043890;28;20559;-68
2023/08/29 08:39:19;;;;;;;17.00;11.90;;;14.80;99.90;;;;;;5033896;28;20522;-65
2023/08/29 08:41:47;;;;;;;16.90;12.90;;;14.60;99.90;;;;;;5035457;28;20432;-65
2023/08/29 08:44:16;;;;;;;16.10;12.40;;;14.60;99.90;;;;;;5038756;28;20727;-66
2023/08/29 08:46:45;;;;;;;18.60;12.07;;;14.70;99.90;;;;;;5040580;28;20526;-67
2023/08/29 08:49:13;;;;;;;16.73;13.67;;;14.90;99.90;;;;;;5045923;28;20440;-67
2023/08/29 08:51:42;;;;;;;15.33;11.07;;;15.00;99.90;;;;;;5044994;28;20439;-66
2023/08/29 08:54:11;;;;;;;18.97;14.43;;;15.20;99.90;;;;;;5041077;28;20983;-66
2023/08/29 08:56:39;;;;;;;19.43;13.43;;;15.20;99.90;;;;;;5031472;28;20534;-66
2023/08/29 08:59:07;;;;;;;17.93;14.20;;;15.20;99.90;;;;;;5041174;28;20495;-65
2023/08/29 09:01:35;;;;;;;17.80;14.90;;;15.10;99.90;;;;;;5039804;28;20439;-66
2023/08/29 09:04:04;;;;;;;20.07;13.90;;;15.10;99.90;;;;;;5048712;28;20436;-66
2023/08/29 09:06:32;;;;;;;16.23;12.53;;;15.10;99.90;;;;;;5048827;28;20460;-66
2023/08/29 09:09:17;;;;;;;18.60;13.90;;;15.20;99.90;;;;;;5033562;28;20445;-66
2023/08/29 09:11:52;;;;;;;16.80;13.30;;;15.00;99.90;;;;;;5038837;28;20482;-66
2023/08/29 09:14:20;;;;;;;18.70;14.50;;;14.80;99.90;;;;;;5043770;28;20451;-66
2023/08/29 09:16:52;;;;;;;17.77;14.40;;;14.80;99.90;;;;;;5032610;28;20470;-66
2023/08/29 09:19:22;;;;;;;19.37;14.77;;;14.90;99.90;;;;;;5033927;28;20445;-66
2023/08/29 09:21:50;;;;;;;15.90;13.60;;;14.90;99.90;;;;;;5042010;28;20867;-66
2023/08/29 09:24:31;;;;;;;18.00;13.00;;;14.80;99.90;;;;;;5048468;28;20503;-66
2023/08/29 09:26:59;;;;;;;19.83;13.97;;;14.60;99.90;;;;;;5048185;28;20478;-66
2023/08/29 09:29:30;;;;;;;19.27;13.90;;;14.50;99.90;;;;;;5048031;28;20447;-67
2023/08/29 09:31:59;;;;;;;23.30;15.63;;;14.60;99.90;;;;;;5038970;28;20570;-67
2023/08/29 09:34:28;;;;;;;22.47;14.80;;;14.60;99.90;;;;;;5032698;28;20444;-66
2023/08/29 09:36:59;;;;;;;22.10;15.80;;;14.60;99.90;;;;;;5044849;28;20496;-65
2023/08/29 09:39:28;;;;;;;20.40;14.10;;;14.60;99.90;;;;;;5037849;28;20492;-66
2023/08/29 09:42:01;;;;;;;23.57;18.13;;;14.70;99.90;;;;;;5043296;28;21249;-66
2023/08/29 09:44:30;;;;;;;18.47;15.50;;;14.80;99.90;;;;;;5037442;28;20450;-65
2023/08/29 09:46:58;;;;;;;18.70;14.20;;;14.80;99.90;;;;;;5041999;28;20510;-66
2023/08/29 09:49:32;;;;;;;20.50;15.00;;;14.80;99.90;;;;;;5033900;28;20449;-66
2023/08/29 09:52:02;;;;;;;20.03;16.50;;;14.80;99.90;;;;;;5039347;28;20568;-65
2023/08/29 09:54:33;;;;;;;19.87;14.80;;;14.80;99.90;;;;;;5046053;28;20436;-65
2023/08/29 09:57:06;;;;;;;25.30;16.67;;;14.80;99.90;;;;;;5037550;28;20970;-65
2023/08/29 09:59:38;;;;;;;21.87;15.03;;;15.00;99.90;;;;;;5029221;28;21814;-65
2023/08/29 10:02:10;;;;;;;19.07;15.27;;;15.10;99.90;;;;;;5045017;28;20531;-66
2023/08/29 10:04:43;;;;;;;18.83;14.97;;;15.40;99.90;;;;;;5041492;28;20443;-66
2023/08/29 10:07:15;;;;;;;17.63;14.07;;;15.60;99.90;;;;;;5041069;28;20518;-66
2023/08/29 10:09:45;;;;;;;14.70;12.13;;;16.00;99.90;;;;;;5043178;28;20951;-66
2023/08/29 10:12:13;;;;;;;19.50;12.10;;;16.20;99.90;;;;;;5030426;28;20486;-66
2023/08/29 10:14:43;;;;;;;18.30;12.37;;;16.50;99.90;;;;;;5025804;28;20439;-66
2023/08/29 10:17:13;;;;;;;17.80;11.37;;;16.50;99.90;;;;;;5036908;28;20901;-66
2023/08/29 10:19:59;;;;;;;13.27;10.33;;;16.70;99.90;;;;;;5037864;28;20431;-66
2023/08/29 10:22:30;;;;;;;13.90;10.20;;;16.80;99.90;;;;;;5031357;28;20436;-66
2023/08/29 10:25:02;;;;;;;14.30;11.30;;;16.60;99.90;;;;;;5041957;28;20450;-67
2023/08/29 10:27:30;;;;;;;16.93;11.20;;;16.40;99.90;;;;;;5039794;28;20463;-67
2023/08/29 10:29:58;;;;;;;14.57;11.60;;;16.50;99.90;;;;;;5039763;28;20444;-66
2023/08/29 10:32:29;;;;;;;14.73;11.30;;;16.50;99.90;;;;;;5031130;28;20480;-65
2023/08/29 10:34:57;;;;;;;14.43;10.97;;;16.50;99.90;;;;;;5037025;28;20972;-66
2023/08/29 10:37:27;;;;;;;14.93;10.83;;;16.40;99.90;;;;;;5033731;28;20465;-66
2023/08/29 10:40:07;;;;;;;13.07;9.27;;;16.50;99.90;;;;;;5038709;28;21971;-65
2023/08/29 10:42:51;;;;;;;13.33;9.40;;;16.40;99.90;;;;;;5043053;28;20445;-67
2023/08/29 10:45:21;;;;;;;12.53;7.97;;;16.60;99.90;;;;;;5036417;28;20950;-65
2023/08/29 10:47:49;;;;;;;13.43;9.93;;;16.60;99.90;;;;;;5036380;28;20472;-66
2023/08/29 10:50:20;;;;;;;14.30;10.10;;;16.80;99.90;;;;;;5033130;28;20562;-66
2023/08/29 10:52:50;;;;;;;15.53;10.67;;;16.80;99.90;;;;;;5037759;28;22031;-66
2023/08/29 10:55:23;;;;;;;13.80;10.60;;;16.70;99.90;;;;;;5044541;28;20477;-65
2023/08/29 10:57:53;;;;;;;14.63;12.17;;;16.50;99.90;;;;;;5037768;28;20474;-66
2023/08/29 11:00:34;;;;;;;14.03;11.17;;;16.60;99.90;;;;;;5042252;28;20453;-66
2023/08/29 11:03:03;;;;;;;15.60;12.53;;;16.90;99.90;;;;;;5040154;28;20469;-66
2023/08/29 11:05:31;;;;;;;13.70;10.90;;;17.20;99.90;;;;;;5038559;28;20440;-67
2023/08/29 11:08:22;;;;;;;13.87;10.67;;;17.50;99.90;;;;;;5032683;28;20458;-66
2023/08/29 11:11:16;;;;;;;16.63;11.00;;;17.60;99.90;;;;;;5028903;28;20487;-66
2023/08/29 11:14:06;;;;;;;16.23;13.27;;;17.60;99.90;;;;;;5029940;28;20499;-66
2023/08/29 11:16:36;;;;;;;14.73;12.03;;;17.50;99.90;;;;;;5032017;28;21966;-66
2023/08/29 11:19:12;;;;;;;16.97;12.03;;;17.40;99.90;;;;;;5032947;28;20532;-66
2023/08/29 11:21:40;;;;;;;15.97;12.30;;;17.60;99.90;;;;;;5037031;28;20447;-66
2023/08/29 11:24:10;;;;;;;16.00;11.47;;;17.70;99.90;;;;;;5040519;28;20887;-65
2023/08/29 11:26:45;;;;;;;15.40;11.50;;;17.80;99.90;;;;;;5029104;28;21047;-66
2023/08/29 11:29:14;;;;;;;16.10;12.40;;;17.70;99.90;;;;;;5043053;28;20440;-67
2023/08/29 11:31:43;;;;;;;12.40;10.07;;;17.50;99.90;;;;;;5042075;28;20479;-66
2023/08/29 11:34:17;;;;;;;15.70;12.53;;;17.30;99.90;;;;;;5033132;28;20510;-66
2023/08/29 11:36:48;;;;;;;12.50;10.17;;;17.30;99.90;;;;;;5040267;28;20468;-65
2023/08/29 11:39:17;;;;;;;13.17;9.30;;;17.00;99.90;;;;;;5038275;28;20448;-66
2023/08/29 11:41:45;;;;;;;14.23;10.17;;;16.90;99.90;;;;;;5032510;28;20439;-66
2023/08/29 11:44:35;;;;;;;14.20;10.23;;;16.90;99.90;;;;;;5023856;28;20880;-65
2023/08/29 11:47:23;;;;;;;16.40;11.10;;;16.90;99.90;;;;;;5026648;28;20456;-66
2023/08/29 11:49:52;;;;;;;15.63;12.57;;;17.00;99.90;;;;;;5032791;28;20455;-66
2023/08/29 11:52:20;;;;;;;16.93;13.00;;;17.10;99.90;;;;;;5038654;28;20477;-66
2023/08/29 11:54:50;;;;;;;15.80;12.47;;;17.20;99.90;;;;;;5038217;28;20961;-65
2023/08/29 11:57:19;;;;;;;15.70;12.70;;;17.30;99.90;;;;;;5029649;28;20460;-65
2023/08/29 11:59:50;;;;;;;14.63;12.20;;;17.20;99.90;;;;;;5033578;28;20483;-66
2023/08/29 12:02:21;;;;;;;16.90;12.97;;;16.90;99.90;;;;;;5039474;28;20440;-68
2023/08/29 12:04:55;;;;;;;17.20;14.17;;;16.40;99.90;;;;;;5035755;28;20517;-66
2023/08/29 12:07:24;;;;;;;15.97;13.47;;;16.30;99.90;;;;;;5042681;28;20462;-68
2023/08/29 12:09:53;;;;;;;21.43;15.93;;;16.30;99.90;;;;;;5039388;28;20458;-67
2023/08/29 12:12:29;;;;;;;21.50;16.10;;;16.20;99.90;;;;;;5042818;28;20478;-67
2023/08/29 12:14:59;;;;;;;14.43;11.17;;;16.20;99.90;;;;;;5042745;28;20484;-67
2023/08/29 12:17:38;;;;;;;17.60;12.97;;;16.10;99.90;;;;;;5043166;28;20566;-66
2023/08/29 12:20:28;;;;;;;17.07;13.97;;;16.20;99.90;;;;;;5044334;28;20446;-67
2023/08/29 12:22:56;;;;;;;17.73;13.87;;;16.20;99.90;;;;;;5040393;28;20450;-67
2023/08/29 12:25:24;;;;;;;18.20;14.17;;;16.10;99.90;;;;;;5039381;28;20936;-66
2023/08/29 12:27:52;;;;;;;17.10;13.30;;;16.20;99.90;;;;;;5033353;28;20460;-66
2023/08/29 12:30:22;;;;;;;15.70;12.90;;;16.10;99.90;;;;;;5036525;28;20436;-67
2023/08/29 12:32:50;;;;;;;14.70;11.13;;;16.00;99.90;;;;;;5038910;28;20481;-66
2023/08/29 12:35:19;;;;;;;16.50;9.97;;;15.90;99.90;;;;;;5032262;28;20525;-66
2023/08/29 12:37:47;;;;;;;13.20;9.50;;;15.80;99.90;;;;;;5038484;28;20970;-67
2023/08/29 12:40:15;;;;;;;13.03;9.70;;;15.80;99.90;;;;;;5036664;28;20530;-66
2023/08/29 12:42:44;;;;;;;15.50;10.40;;;15.90;99.90;;;;;;5042648;28;20454;-68
2023/08/29 12:45:13;;;;;;;14.47;10.53;;;15.80;99.90;;;;;;5041384;28;20477;-66